Time;durP1;ratioP1;P1;durP2;ratioP2;P2;SDS_P1;SDS_P2;PMS_P1;PMS_P2;Temp;Humidity;BMP_temperature;BMP_pressure;BME280_temperature;BME280_humidity;BME280_pressure;Samples;Min_cycle;Max_cycle;Signal;HPM_P1;HPM_P2
2022/01/15 00:02:39;;;;;;;7.70;5.73;;;;;;;18.72;49.80;97803.63;10411382;28;20041;-23
2022/01/15 00:07:39;;;;;;;11.25;4.95;;;;;;;18.73;49.63;97782.50;10411266;28;20056;-23
2022/01/15 00:12:40;;;;;;;8.48;5.78;;;;;;;18.71;49.67;97774.00;10442818;28;20039;-22
2022/01/15 00:22:46;;;;;;;6.55;4.90;;;;;;;18.72;50.17;97775.72;10451901;28;20545;-23
2022/01/15 00:27:47;;;;;;;9.57;5.13;;;;;;;18.71;49.94;97768.94;10450124;28;20116;-23
2022/01/15 00:32:48;;;;;;;9.95;5.43;;;;;;;18.69;50.05;97755.38;10449286;28;20163;-24
2022/01/15 00:37:48;;;;;;;7.07;4.60;;;;;;;18.71;50.04;97758.78;10410358;28;20044;-23
2022/01/15 00:42:48;;;;;;;9.27;4.87;;;;;;;18.68;50.21;97753.69;10442044;28;20033;-23
2022/01/15 00:47:50;;;;;;;7.13;4.83;;;;;;;18.67;50.00;97744.38;10444133;28;20397;-23
2022/01/15 00:52:51;;;;;;;6.43;4.30;;;;;;;18.68;49.96;97746.91;10409562;28;20559;-24
2022/01/15 00:57:51;;;;;;;7.25;5.18;;;;;;;18.68;50.02;97748.59;10441391;28;20438;-21
2022/01/15 01:02:53;;;;;;;7.15;4.97;;;;;;;18.68;49.91;97733.38;10433173;28;20079;-20
2022/01/15 01:07:53;;;;;;;6.78;4.85;;;;;;;18.69;49.93;97730.00;10446759;28;20519;-20
2022/01/15 01:13:14;;;;;;;6.82;4.53;;;;;;;18.69;50.04;97724.94;10415211;28;20091;-21
2022/01/15 01:23:34;;;;;;;9.32;4.63;;;;;;;18.70;50.04;97716.50;10408415;28;20041;-21
2022/01/15 01:28:41;;;;;;;5.73;3.80;;;;;;;18.65;50.12;97713.91;10408117;28;20515;-21
2022/01/15 01:33:46;;;;;;;6.70;4.60;;;;;;;18.65;50.34;97713.03;10408855;28;20114;-21
2022/01/15 01:43:59;;;;;;;7.53;4.35;;;;;;;18.68;50.02;97715.63;10449397;28;20570;-21
2022/01/15 01:49:01;;;;;;;7.38;4.35;;;;;;;18.67;50.26;97711.41;10447831;28;20504;-20
2022/01/15 01:54:04;;;;;;;8.23;5.03;;;;;;;18.66;50.29;97714.75;10446128;28;20353;-21
2022/01/15 01:59:07;;;;;;;7.05;3.97;;;;;;;18.70;50.21;97716.50;10408251;28;20033;-22
2022/01/15 02:04:07;;;;;;;9.10;4.40;;;;;;;18.67;50.12;97716.47;10408128;28;20037;-20
2022/01/15 02:09:08;;;;;;;6.32;4.15;;;;;;;18.66;50.27;97714.75;10414131;28;20134;-21
2022/01/15 02:14:08;;;;;;;6.63;4.13;;;;;;;18.67;50.16;97721.53;10457065;28;20037;-21
2022/01/15 02:19:09;;;;;;;5.57;3.60;;;;;;;18.63;50.31;97707.09;10455525;28;20044;-21
2022/01/15 02:24:09;;;;;;;7.83;4.00;;;;;;;18.67;50.28;97717.31;10455012;28;20033;-21
2022/01/15 02:29:10;;;;;;;4.88;3.50;;;;;;;18.70;50.03;97716.50;10456301;28;20106;-21
2022/01/15 02:34:10;;;;;;;8.05;4.05;;;;;;;18.69;50.19;97709.72;10418939;28;20034;-20
2022/01/15 02:39:10;;;;;;;7.70;3.70;;;;;;;18.66;50.21;97709.69;10419929;28;20029;-23
2022/01/15 02:44:16;;;;;;;6.00;3.60;;;;;;;18.64;50.44;97701.19;10456080;28;20044;-23
2022/01/15 02:49:17;;;;;;;5.40;3.80;;;;;;;18.66;50.18;97700.38;10439174;28;20496;-23
2022/01/15 02:54:18;;;;;;;7.47;4.18;;;;;;;18.64;50.34;97706.25;10417558;28;20048;-23
2022/01/15 02:59:21;;;;;;;5.93;4.00;;;;;;;18.64;50.51;97696.09;10455649;28;20033;-23
2022/01/15 03:04:22;;;;;;;6.32;3.15;;;;;;;18.68;50.29;97697.88;10449079;28;20294;-23
2022/01/15 03:09:22;;;;;;;5.03;3.20;;;;;;;18.64;50.41;97696.09;10449151;28;20040;-23
2022/01/15 03:14:25;;;;;;;7.43;3.80;;;;;;;18.65;50.27;97695.28;10416573;28;20288;-23
2022/01/15 03:19:25;;;;;;;7.30;4.32;;;;;;;18.58;50.36;97678.28;10452788;28;20078;-22
2022/01/15 03:24:26;;;;;;;4.63;3.17;;;;;;;18.59;50.36;97669.84;10446533;28;20032;-24
2022/01/15 03:29:26;;;;;;;5.17;3.43;;;;;;;18.67;50.15;97675.88;10413704;28;20033;-23
2022/01/15 03:34:26;;;;;;;6.43;3.97;;;;;;;18.66;50.23;97674.19;10421590;28;20036;-23
2022/01/15 03:39:28;;;;;;;4.82;3.25;;;;;;;18.65;50.31;97672.44;10452213;28;20082;-24
2022/01/15 03:44:28;;;;;;;4.43;2.90;;;;;;;18.66;50.29;97674.19;10453215;28;20069;-25
2022/01/15 03:49:28;;;;;;;4.97;3.50;;;;;;;18.68;50.24;97678.41;10433486;28;20041;-23
2022/01/15 03:54:29;;;;;;;6.40;3.43;;;;;;;18.63;50.34;97674.13;10416958;28;20446;-23
2022/01/15 03:59:30;;;;;;;5.07;3.73;;;;;;;18.60;50.50;97685.06;10452990;28;20060;-23
2022/01/15 04:04:30;;;;;;;5.18;3.10;;;;;;;18.61;50.26;97666.50;10437744;28;20290;-23
2022/01/15 04:09:30;;;;;;;5.23;2.93;;;;;;;18.65;50.23;97667.38;10445958;28;20037;-22
2022/01/15 04:14:31;;;;;;;5.23;2.90;;;;;;;18.62;50.17;97667.34;10415080;28;20040;-23
2022/01/15 04:19:33;;;;;;;6.57;3.17;;;;;;;18.65;50.33;97652.16;10430948;28;20292;-23
2022/01/15 04:24:33;;;;;;;8.18;3.20;;;;;;;18.63;50.22;97656.34;10410594;28;20300;-24
2022/01/15 04:29:34;;;;;;;4.82;3.03;;;;;;;18.62;50.16;97653.00;10409882;28;20030;-23
2022/01/15 04:34:34;;;;;;;4.05;2.80;;;;;;;18.64;50.25;97656.38;10410729;28;20035;-23
2022/01/15 04:39:35;;;;;;;3.92;2.72;;;;;;;18.61;50.41;97652.97;10415468;28;20456;-24
2022/01/15 04:44:36;;;;;;;8.20;3.22;;;;;;;18.55;50.38;97647.78;10451132;28;20107;-23
2022/01/15 04:49:36;;;;;;;4.45;2.85;;;;;;;18.59;50.46;97644.47;10428145;28;20087;-24
2022/01/15 04:54:37;;;;;;;5.43;3.53;;;;;;;18.59;50.61;97634.34;10409995;28;20044;-23
2022/01/15 04:59:37;;;;;;;5.80;2.97;;;;;;;18.61;50.12;97631.00;10410012;28;20272;-23
2022/01/15 05:04:37;;;;;;;4.20;2.93;;;;;;;18.64;50.25;97625.94;10426184;28;20328;-24
2022/01/15 05:09:38;;;;;;;5.45;3.00;;;;;;;18.68;50.04;97624.31;10442432;28;20650;-23
2022/01/15 05:14:38;;;;;;;5.22;3.22;;;;;;;18.69;50.14;97613.34;10413366;28;20183;-23
2022/01/15 05:19:39;;;;;;;4.37;2.60;;;;;;;18.71;50.06;97619.28;10448864;28;20043;-22
2022/01/15 05:24:39;;;;;;;2.83;2.40;;;;;;;18.69;50.01;97623.47;10441749;28;20037;-23
2022/01/15 05:29:40;;;;;;;3.35;2.38;;;;;;;18.68;50.22;97622.63;10408765;28;20124;-24
2022/01/15 05:34:40;;;;;;;3.17;2.65;;;;;;;18.63;50.20;97610.69;10418788;28;20368;-23
2022/01/15 05:39:40;;;;;;;3.23;2.23;;;;;;;18.67;50.14;97612.47;10440763;28;20033;-23
2022/01/15 05:44:41;;;;;;;3.85;2.30;;;;;;;18.71;49.96;97610.00;10415920;28;20782;-24
2022/01/15 05:49:41;;;;;;;2.93;2.30;;;;;;;18.71;50.11;97606.59;10436674;28;20040;-23
2022/01/15 05:54:42;;;;;;;4.63;2.40;;;;;;;18.73;49.74;97602.38;10449623;28;20302;-23
2022/01/15 05:59:42;;;;;;;5.67;3.07;;;;;;;18.69;50.03;97601.50;10416096;28;20037;-23
2022/01/15 06:04:42;;;;;;;4.82;2.70;;;;;;;18.68;50.02;97587.09;10416125;28;20296;-23
2022/01/15 06:09:43;;;;;;;2.77;2.47;;;;;;;18.65;50.26;97591.28;10422136;28;20174;-25
2022/01/15 06:14:43;;;;;;;4.68;3.03;;;;;;;18.62;50.26;97589.56;10431187;28;20052;-23
2022/01/15 06:19:44;;;;;;;2.90;2.47;;;;;;;18.63;50.21;97588.75;10425341;28;20510;-23
2022/01/15 06:24:44;;;;;;;2.95;2.40;;;;;;;18.63;50.36;97587.88;10446959;28;20303;-23
2022/01/15 06:29:45;;;;;;;4.00;2.37;;;;;;;18.65;50.24;97594.69;10411863;28;20088;-23
2022/01/15 06:34:46;;;;;;;2.85;2.55;;;;;;;18.70;49.90;97597.28;10393901;28;20488;-23
2022/01/15 06:39:47;;;;;;;2.13;1.90;;;;;;;18.69;49.99;97596.44;10391295;28;20040;-23
2022/01/15 06:44:47;;;;;;;3.97;2.50;;;;;;;18.69;49.99;97591.38;10392583;28;20121;-25
2022/01/15 06:49:47;;;;;;;3.63;2.43;;;;;;;18.70;50.04;97604.88;10417324;28;20037;-24
2022/01/15 06:54:48;;;;;;;6.55;4.47;;;;;;;18.59;48.48;97586.16;10379867;28;20103;-24
2022/01/15 06:59:48;;;;;;;4.90;2.93;;;;;;;18.78;49.31;97601.63;10414487;28;20400;-23
2022/01/15 07:04:49;;;;;;;10.50;2.70;;;;;;;18.76;48.87;97605.81;10431282;28;20378;-23
2022/01/15 07:09:49;;;;;;;3.93;3.03;;;;;;;18.79;48.51;97610.94;10439813;28;20291;-23
2022/01/15 07:14:50;;;;;;;10.60;3.40;;;;;;;18.80;48.49;97616.84;10454963;28;20047;-23
2022/01/15 07:19:51;;;;;;;5.35;3.17;;;;;;;18.78;48.58;97616.00;10453796;28;20108;-23
2022/01/15 07:24:51;;;;;;;5.10;2.95;;;;;;;18.78;48.98;97624.47;10453091;28;20422;-23
2022/01/15 07:29:51;;;;;;;10.47;3.73;;;;;;;18.79;48.76;97625.28;10454227;28;20025;-23
2022/01/15 07:34:52;;;;;;;5.00;3.20;;;;;;;18.79;48.71;97636.31;10437372;28;20026;-25
2022/01/15 07:39:53;;;;;;;6.23;3.00;;;;;;;18.68;48.97;97637.00;10439308;28;20037;-22
2022/01/15 07:44:53;;;;;;;10.00;2.97;;;;;;;18.74;48.37;97621.88;10381822;28;20041;-23
2022/01/15 07:49:54;;;;;;;4.50;2.97;;;;;;;18.80;48.27;97624.47;10398178;28;20039;-23
2022/01/15 07:54:54;;;;;;;16.77;4.27;;;;;;;18.71;48.04;97637.03;10430465;28;20036;-24
2022/01/15 07:59:54;;;;;;;7.65;3.40;;;;;;;18.67;46.81;97612.47;10411750;28;20292;-24
2022/01/15 08:04:55;;;;;;;8.43;3.67;;;;;;;18.78;47.99;97616.00;10443606;28;20041;-23
2022/01/15 08:09:55;;;;;;;6.63;3.30;;;;;;;18.77;47.92;97616.81;10442027;28;20299;-23
2022/01/15 08:14:56;;;;;;;6.63;3.10;;;;;;;18.79;47.98;97615.16;10417783;28;20074;-24
2022/01/15 08:19:56;;;;;;;7.97;3.30;;;;;;;18.77;48.06;97616.81;10450457;28;20415;-23
2022/01/15 08:24:57;;;;;;;7.73;5.30;;;;;;;18.67;45.17;97610.75;10428549;28;20043;-23
2022/01/15 08:29:57;;;;;;;6.22;3.25;;;;;;;18.67;49.56;97615.00;10430335;28;20044;-23
2022/01/15 08:34:58;;;;;;;10.02;3.47;;;;;;;18.62;49.64;97606.47;10393868;28;20410;-22
2022/01/15 08:39:58;;;;;;;11.27;5.47;;;;;;;18.49;46.79;97607.16;10418623;28;20123;-23
2022/01/15 08:44:59;;;;;;;12.63;4.80;;;;;;;18.46;45.90;97605.41;10381901;28;20038;-24
2022/01/15 08:50:00;;;;;;;10.25;6.45;;;;;;;18.38;44.83;97589.25;10384968;28;20146;-22
2022/01/15 08:55:01;;;;;;;6.63;5.07;;;;;;;18.45;44.72;97595.25;10418822;28;20486;-23
2022/01/15 09:00:05;;;;;;;6.50;5.18;;;;;;;18.54;44.38;97597.91;10450653;28;20411;-23
2022/01/15 09:05:06;;;;;;;9.13;5.70;;;;;;;18.48;43.34;97598.66;10402761;28;20033;-23
2022/01/15 09:10:07;;;;;;;8.40;6.13;;;;;;;18.61;45.28;97599.69;10400655;28;20033;-23
2022/01/15 09:15:07;;;;;;;6.25;4.63;;;;;;;18.67;46.08;97597.25;10392160;28;20030;-23
2022/01/15 09:20:08;;;;;;;11.25;5.88;;;;;;;18.57;44.68;97603.03;10388613;28;20021;-22
2022/01/15 09:25:09;;;;;;;8.65;4.72;;;;;;;18.52;46.27;97591.97;10396407;28;20034;-23
2022/01/15 09:30:12;;;;;;;10.80;4.45;;;;;;;18.58;46.57;97589.53;10433001;28;20422;-23
2022/01/15 09:35:16;;;;;;;11.88;4.30;;;;;;;18.62;46.94;97591.25;10431299;28;20033;-23
2022/01/15 09:40:18;;;;;;;10.32;5.45;;;;;;;18.63;47.15;97592.94;10433586;28;20058;-24
2022/01/15 09:45:20;;;;;;;6.25;3.70;;;;;;;18.61;47.30;97595.50;10429926;28;20029;-23
2022/01/15 09:50:23;;;;;;;6.93;3.70;;;;;;;18.64;47.29;97576.91;10412371;28;20466;-23
2022/01/15 09:55:24;;;;;;;7.28;3.75;;;;;;;18.67;47.46;97579.50;10419619;28;20039;-24
2022/01/15 10:00:25;;;;;;;7.25;3.90;;;;;;;18.70;47.65;97582.06;10414813;28;20060;-23
2022/01/15 10:05:26;;;;;;;9.82;3.72;;;;;;;18.74;47.56;97583.81;10412274;28;20040;-23
2022/01/15 10:10:29;;;;;;;8.73;3.40;;;;;;;18.75;47.92;97582.97;10409957;28;20037;-24
2022/01/15 10:15:29;;;;;;;6.60;3.47;;;;;;;18.68;47.80;97571.03;10427146;28;20403;-24
2022/01/15 10:20:34;;;;;;;7.07;3.73;;;;;;;18.69;48.20;97566.00;10410993;28;20041;-23
2022/01/15 10:25:36;;;;;;;8.80;3.90;;;;;;;18.72;48.26;97572.78;10413188;28;20064;-24
2022/01/15 10:30:37;;;;;;;6.90;4.03;;;;;;;18.74;48.32;97571.97;10394484;28;20030;-24
2022/01/15 10:35:40;;;;;;;6.70;3.75;;;;;;;18.67;48.61;97565.09;10436336;28;20167;-23
2022/01/15 10:40:44;;;;;;;7.72;4.10;;;;;;;18.67;48.70;97554.13;10428832;28;20098;-23
2022/01/15 10:45:53;;;;;;;9.48;4.57;;;;;;;18.69;48.71;97553.31;10455766;28;20055;-22
2022/01/15 10:50:59;;;;;;;6.97;4.60;;;;;;;18.71;48.73;97538.09;10454470;28;20068;-23
2022/01/15 10:56:01;;;;;;;8.38;4.45;;;;;;;18.71;49.05;97530.50;10436324;28;20037;-23
2022/01/15 11:01:02;;;;;;;6.72;4.53;;;;;;;18.70;49.37;97529.66;10414037;28;20061;-23
2022/01/15 11:06:05;;;;;;;7.82;4.85;;;;;;;18.71;49.27;97518.66;10431693;28;20540;-23
2022/01/15 11:11:07;;;;;;;9.68;5.25;;;;;;;18.74;49.62;97515.31;10434568;28;20033;-24
2022/01/15 11:16:14;;;;;;;7.68;5.38;;;;;;;18.79;49.34;97513.66;10430978;28;20467;-24
2022/01/15 11:21:16;;;;;;;;;;;;;;;18.74;49.89;97506.00;10453511;28;20051;-24
2022/01/15 11:26:23;;;;;;;7.18;5.90;;;;;;;18.69;49.77;97486.50;10432892;28;19940;-23
2022/01/15 11:31:26;;;;;;;7.88;5.93;;;;;;;18.78;49.81;97496.75;10412970;28;20064;-24
2022/01/15 11:36:27;;;;;;;7.43;5.30;;;;;;;18.78;50.00;97486.59;10439069;28;20502;-23
2022/01/15 11:41:27;;;;;;;7.35;5.45;;;;;;;18.78;49.79;97481.53;10430728;28;20044;-23
2022/01/15 11:46:31;;;;;;;10.52;7.15;;;;;;;18.36;45.71;97474.28;10413346;28;20395;-22
2022/01/15 11:51:31;;;;;;;7.47;5.32;;;;;;;18.53;48.32;97479.53;10410449;28;20041;-20
2022/01/15 11:56:42;;;;;;;9.77;6.35;;;;;;;18.63;47.44;97472.06;10422289;28;20029;-22
2022/01/15 12:01:43;;;;;;;8.63;6.47;;;;;;;18.72;48.04;97456.09;10390739;28;20393;-23
2022/01/15 12:07:07;;;;;;;13.45;6.50;;;;;;;18.76;48.22;97453.59;10391215;28;20037;-24
2022/01/15 12:12:40;;;;;;;13.20;6.80;;;;;;;18.72;48.40;97441.72;10403435;28;20095;-25
2022/01/15 12:17:43;;;;;;;9.88;5.95;;;;;;;18.78;48.22;97425.72;10427078;28;20033;-23
2022/01/15 12:22:56;;;;;;;11.75;6.65;;;;;;;18.79;48.68;97410.53;10418213;28;20071;-23
2022/01/15 12:27:58;;;;;;;17.63;6.88;;;;;;;18.73;49.18;97394.38;10401789;28;20042;-22
2022/01/15 12:33:01;;;;;;;14.45;7.10;;;;;;;18.69;49.22;97395.19;10414547;28;20438;-23
2022/01/15 12:38:13;;;;;;;18.35;7.55;;;;;;;18.70;48.98;97389.28;10414135;28;20112;-23
2022/01/15 12:43:27;;;;;;;17.65;6.57;;;;;;;18.68;49.32;97378.28;10439723;28;20037;-22
2022/01/15 12:48:32;;;;;;;19.77;7.93;;;;;;;18.69;49.66;97373.22;10420720;28;20037;-22
2022/01/15 12:53:35;;;;;;;12.48;7.25;;;;;;;18.83;49.21;97373.34;10406545;28;20037;-22
2022/01/15 12:58:36;;;;;;;9.40;6.32;;;;;;;18.81;49.09;97369.91;10410646;28;20034;-22
2022/01/15 13:03:39;;;;;;;17.55;6.88;;;;;;;18.87;49.31;97377.59;10391637;28;20439;-22
2022/01/15 13:08:43;;;;;;;16.05;7.35;;;;;;;18.90;49.24;97364.94;10409850;28;20044;-22
2022/01/15 13:13:51;;;;;;;11.77;5.88;;;;;;;18.95;49.16;97365.84;10436318;28;20041;-22
2022/01/15 13:18:58;;;;;;;12.05;6.65;;;;;;;18.98;49.30;97363.31;10425378;28;20036;-22
2022/01/15 13:24:11;;;;;;;10.70;6.53;;;;;;;18.97;49.59;97357.41;10448673;28;20037;-22
2022/01/15 13:29:15;;;;;;;20.13;7.18;;;;;;;18.96;50.24;97354.84;10380761;28;20036;-22
2022/01/15 13:34:23;;;;;;;15.52;6.97;;;;;;;18.97;50.57;97361.59;10394875;28;20036;-22
2022/01/15 13:39:23;;;;;;;21.95;7.43;;;;;;;19.02;49.84;97367.59;10398823;28;20025;-22
2022/01/15 13:44:24;;;;;;;18.85;9.70;;;;;;;18.96;47.54;97365.00;10449573;28;20045;-21
2022/01/15 13:49:36;;;;;;;15.20;7.40;;;;;;;19.11;48.59;97365.13;10414437;28;20033;-22
2022/01/15 13:54:37;;;;;;;11.80;7.30;;;;;;;19.19;49.01;97371.13;10392188;28;20029;-22
2022/01/15 13:59:40;;;;;;;15.32;9.52;;;;;;;18.83;46.84;97375.88;10387741;28;20029;-22
2022/01/15 14:04:40;;;;;;;12.50;9.50;;;;;;;18.98;46.23;97368.38;10396036;28;20041;-22
2022/01/15 14:09:44;;;;;;;14.03;11.50;;;;;;;18.86;44.45;97368.28;10391844;28;20021;-22
2022/01/15 14:14:50;;;;;;;12.82;8.98;;;;;;;19.04;46.31;97363.38;10420555;28;20274;-22
2022/01/15 14:25:08;;;;;;;14.35;7.78;;;;;;;19.02;47.48;97370.13;10446566;28;20033;-22
2022/01/15 14:30:09;;;;;;;9.95;7.78;;;;;;;19.01;48.14;97368.44;10414970;28;20510;-24
2022/01/15 14:35:10;;;;;;;9.35;6.45;;;;;;;18.99;48.41;97367.56;10415298;28;20040;-22
2022/01/15 14:40:11;;;;;;;9.65;6.32;;;;;;;18.94;48.92;97366.66;10406591;28;20068;-22
2022/01/15 14:45:11;;;;;;;12.63;5.95;;;;;;;18.95;48.88;97363.28;10376845;28;20100;-22
2022/01/15 14:50:13;;;;;;;9.90;6.30;;;;;;;18.91;49.20;97359.03;10403903;28;20065;-22
2022/01/15 14:55:14;;;;;;;8.30;6.10;;;;;;;18.88;49.07;97362.41;10404465;28;20033;-23
2022/01/15 15:00:15;;;;;;;9.60;6.70;;;;;;;18.89;49.88;97363.22;10413785;28;20056;-20
2022/01/15 15:05:16;;;;;;;8.10;5.63;;;;;;;18.90;49.88;97364.94;10424838;28;20036;-20
2022/01/15 15:10:16;;;;;;;9.27;6.60;;;;;;;18.78;50.07;97354.69;10442527;28;20056;-20
2022/01/15 15:15:16;;;;;;;11.87;6.73;;;;;;;18.85;49.84;97366.59;10422221;28;20048;-20
2022/01/15 15:20:17;;;;;;;10.83;6.33;;;;;;;18.82;50.41;97377.56;10453321;28;20848;-20
2022/01/15 15:25:18;;;;;;;8.27;5.88;;;;;;;18.80;50.13;97368.22;10441035;28;20025;-20
2022/01/15 15:30:18;;;;;;;9.43;5.88;;;;;;;18.83;49.85;97388.56;10412940;28;20049;-20
2022/01/15 15:35:19;;;;;;;7.50;6.57;;;;;;;18.80;49.96;97380.91;10441529;28;20037;-20
2022/01/15 15:40:19;;;;;;;6.80;5.30;;;;;;;18.86;49.74;97381.84;10440380;28;20636;-20
2022/01/15 15:45:20;;;;;;;10.20;6.15;;;;;;;18.87;49.77;97387.75;10412102;28;20546;-21
2022/01/15 15:50:20;;;;;;;7.80;5.45;;;;;;;18.86;49.87;97381.84;10432396;28;20044;-20
2022/01/15 15:55:21;;;;;;;9.48;6.65;;;;;;;18.87;49.68;97381.00;10451299;28;20029;-20
2022/01/15 16:00:23;;;;;;;7.50;5.10;;;;;;;18.82;50.40;97387.72;10447288;28;20045;-20
2022/01/15 16:05:23;;;;;;;7.93;6.22;;;;;;;18.78;50.49;97385.13;10403152;28;20037;-21
2022/01/15 16:10:25;;;;;;;11.55;5.88;;;;;;;18.77;50.53;97373.28;10405308;28;20038;-21
2022/01/15 16:15:26;;;;;;;8.02;5.95;;;;;;;18.77;50.71;97378.34;10387936;28;20040;-21
2022/01/15 16:20:26;;;;;;;9.13;6.32;;;;;;;18.78;51.24;97387.66;10395521;28;20677;-21
2022/01/15 16:25:27;;;;;;;8.63;6.23;;;;;;;18.76;50.95;97391.88;10422041;28;20051;-21
2022/01/15 16:30:27;;;;;;;9.87;5.50;;;;;;;18.74;51.16;97381.72;10451710;28;20032;-32
2022/01/15 16:35:27;;;;;;;12.98;7.05;;;;;;;18.72;51.58;97377.44;10418306;28;20030;-21
2022/01/15 16:40:28;;;;;;;10.35;6.68;;;;;;;18.77;51.65;97368.22;10421956;28;20519;-21
2022/01/15 16:45:29;;;;;;;14.40;6.07;;;;;;;18.86;51.53;97371.69;10450829;28;20037;-21
2022/01/15 16:50:30;;;;;;;28.35;19.17;;;;;;;17.05;42.51;97376.91;10426040;28;20050;-21
2022/01/15 16:55:30;;;;;;;16.65;10.48;;;;;;;18.24;47.22;97379.47;10406273;28;20375;-21
2022/01/15 17:00:31;;;;;;;13.43;9.13;;;;;;;18.53;48.37;97378.97;10404503;28;20048;-21
2022/01/15 17:05:32;;;;;;;10.48;7.53;;;;;;;18.66;48.87;97364.72;10418344;28;20041;-21
2022/01/15 17:10:32;;;;;;;9.88;7.45;;;;;;;18.70;49.13;97361.38;10406227;28;20065;-21
2022/01/15 17:15:32;;;;;;;13.37;7.83;;;;;;;18.71;49.35;97363.94;10368823;28;20408;-21
2022/01/15 17:20:33;;;;;;;9.63;7.07;;;;;;;18.75;49.19;97367.34;10374253;28;20296;-21
2022/01/15 17:25:33;;;;;;;10.00;7.10;;;;;;;18.73;49.48;97371.53;10366257;28;20042;-21
2022/01/15 17:30:35;;;;;;;8.33;6.00;;;;;;;18.69;49.58;97360.53;10363893;28;20065;-21
2022/01/15 17:35:35;;;;;;;9.40;7.15;;;;;;;18.72;49.56;97354.63;10368118;28;20305;-21
2022/01/15 17:40:36;;;;;;;8.63;7.10;;;;;;;18.70;49.76;97347.03;10390688;28;20461;-21
2022/01/15 17:45:37;;;;;;;8.82;6.20;;;;;;;18.70;49.38;97348.69;10383690;28;20037;-21
2022/01/15 17:50:37;;;;;;;14.13;6.18;;;;;;;18.71;49.45;97348.72;10385095;28;20048;-21
2022/01/15 17:55:37;;;;;;;8.17;5.80;;;;;;;18.72;49.32;97350.41;10373053;28;20412;-21
2022/01/15 18:00:38;;;;;;;8.43;7.00;;;;;;;18.76;49.36;97346.22;10363885;28;20037;-21
2022/01/15 18:05:39;;;;;;;8.00;6.65;;;;;;;18.74;49.49;97351.28;10376521;28;20472;-21
2022/01/15 18:10:40;;;;;;;8.52;6.43;;;;;;;18.73;49.55;97352.13;10370106;28;20048;-21
2022/01/15 18:15:40;;;;;;;7.00;6.28;;;;;;;18.70;49.56;97356.31;10370307;28;20040;-21
2022/01/15 18:20:43;;;;;;;8.27;6.20;;;;;;;18.70;49.68;97359.69;10373841;28;20041;-23
2022/01/15 18:25:44;;;;;;;7.65;6.00;;;;;;;18.68;49.45;97368.97;10366378;28;20449;-21
2022/01/15 18:30:46;;;;;;;8.07;5.80;;;;;;;18.69;49.57;97359.69;10362916;28;20440;-21
2022/01/15 18:35:46;;;;;;;6.80;5.80;;;;;;;18.70;49.63;97362.25;10392853;28;20034;-21
2022/01/15 18:40:46;;;;;;;6.30;5.70;;;;;;;18.69;49.76;97369.81;10399958;28;20049;-21
2022/01/15 18:45:47;;;;;;;5.80;5.20;;;;;;;18.70;49.43;97377.47;10367276;28;20044;-21
2022/01/15 18:50:47;;;;;;;5.97;5.40;;;;;;;18.69;49.69;97352.06;10388203;28;20065;-21
2022/01/15 18:55:48;;;;;;;7.22;6.00;;;;;;;18.68;49.50;97361.34;10411454;28;20371;-22
2022/01/15 19:00:49;;;;;;;6.60;5.75;;;;;;;18.68;49.66;97347.84;10376262;28;20091;-21
2022/01/15 19:05:49;;;;;;;6.25;4.78;;;;;;;18.69;49.69;97350.41;10377600;28;20641;-21
2022/01/15 19:10:50;;;;;;;6.95;5.18;;;;;;;18.70;49.63;97333.47;10391051;28;20045;-21
2022/01/15 19:15:50;;;;;;;6.90;5.57;;;;;;;18.69;49.68;97339.38;10401238;28;20042;-21
2022/01/15 19:20:51;;;;;;;5.75;5.05;;;;;;;18.67;49.70;97328.38;10373467;28;20038;-21
2022/01/15 19:25:51;;;;;;;5.77;4.73;;;;;;;18.68;49.60;97342.75;10371531;28;20045;-21
2022/01/15 19:30:51;;;;;;;6.40;5.37;;;;;;;18.70;49.59;97381.66;10368318;28;20771;-21
2022/01/15 19:35:52;;;;;;;5.27;4.77;;;;;;;18.70;49.58;97412.09;10369081;28;20044;-21
2022/01/15 19:40:52;;;;;;;5.38;4.88;;;;;;;18.67;49.72;97432.38;10396964;28;20288;-21
2022/01/15 19:45:53;;;;;;;6.93;5.40;;;;;;;18.67;49.56;97440.00;10385339;28;20485;-21
2022/01/15 19:50:53;;;;;;;5.70;5.07;;;;;;;18.58;49.66;97325.78;10381632;28;20550;-21
2022/01/15 19:55:54;;;;;;;5.95;5.32;;;;;;;18.65;49.43;97224.38;10393310;28;20480;-21
2022/01/15 20:00:54;;;;;;;5.53;4.95;;;;;;;18.69;49.25;97198.22;10372657;28;20045;-21
2022/01/15 20:05:55;;;;;;;5.20;4.70;;;;;;;18.71;49.45;97247.25;10366895;28;20038;-21
2022/01/15 20:10:55;;;;;;;5.73;5.17;;;;;;;18.70;49.34;97315.72;10388966;28;20037;-21
2022/01/15 20:15:56;;;;;;;5.63;4.80;;;;;;;18.71;49.41;97297.13;10398432;28;20036;-21
2022/01/15 20:20:58;;;;;;;6.68;5.65;;;;;;;18.73;49.27;97305.59;10376902;28;20045;-21
2022/01/15 20:25:58;;;;;;;6.15;5.22;;;;;;;18.67;49.50;97287.81;10378298;28;20034;-21
2022/01/15 20:30:59;;;;;;;5.63;5.03;;;;;;;18.68;49.40;97251.47;10366421;28;20037;-21
2022/01/15 20:35:59;;;;;;;6.60;5.55;;;;;;;18.68;49.52;97271.75;10366716;28;20518;-21
2022/01/15 20:41:00;;;;;;;5.23;4.73;;;;;;;18.71;49.45;97297.13;10379161;28;20513;-21
2022/01/15 20:46:00;;;;;;;5.17;4.67;;;;;;;18.70;49.49;97394.34;10369704;28;20133;-21
2022/01/15 20:51:01;;;;;;;7.53;5.77;;;;;;;18.52;49.00;97315.56;10405430;28;20048;-21
2022/01/15 20:56:01;;;;;;;7.53;5.95;;;;;;;18.58;48.37;97329.13;10426961;28;20067;-21
2022/01/15 21:01:02;;;;;;;8.23;7.13;;;;;;;18.65;47.61;97309.75;10451013;28;20033;-21
2022/01/15 21:06:03;;;;;;;10.68;7.82;;;;;;;18.53;46.47;97327.41;10449614;28;20060;-21
2022/01/15 21:11:04;;;;;;;14.48;10.55;;;;;;;18.44;44.28;97301.97;10431401;28;20061;-21
2022/01/15 21:16:04;;;;;;;14.70;12.88;;;;;;;18.12;41.06;97263.59;10409412;28;20036;-21
2022/01/15 21:21:04;;;;;;;13.23;11.87;;;;;;;17.96;40.83;97258.34;10403775;28;20430;-21
2022/01/15 21:26:07;;;;;;;13.53;12.10;;;;;;;17.86;40.29;97274.28;10401649;28;20378;-22
2022/01/15 21:31:09;;;;;;;12.20;9.48;;;;;;;18.17;44.62;97291.53;10367152;28;20096;-21
2022/01/15 21:36:09;;;;;;;10.80;8.98;;;;;;;18.31;46.78;97310.28;10410989;28;20044;-21
2022/01/15 21:41:11;;;;;;;10.27;7.70;;;;;;;18.43;47.15;97310.41;10388826;28;20116;-21
2022/01/15 21:46:14;;;;;;;14.95;7.10;;;;;;;18.47;47.72;97312.13;10404401;28;20033;-21
2022/01/15 21:51:14;;;;;;;8.85;7.30;;;;;;;18.45;48.05;97293.50;10386071;28;20041;-22
2022/01/15 21:56:14;;;;;;;11.93;7.43;;;;;;;18.56;48.21;97322.34;10384384;28;20034;-22
2022/01/15 22:01:18;;;;;;;8.30;6.23;;;;;;;18.59;48.34;97314.78;10403943;28;20041;-22
2022/01/15 22:06:21;;;;;;;10.50;6.15;;;;;;;18.59;48.57;97320.69;10400404;28;20033;-21
2022/01/15 22:11:23;;;;;;;7.88;5.95;;;;;;;18.63;48.55;97324.09;10396389;28;20408;-21
2022/01/15 22:16:25;;;;;;;9.13;5.88;;;;;;;18.67;49.39;97320.78;10392097;28;20026;-21
2022/01/15 22:21:26;;;;;;;8.70;5.90;;;;;;;18.66;48.74;97314.84;10404746;28;20061;-21
2022/01/15 22:26:29;;;;;;;9.18;7.38;;;;;;;18.57;47.54;97319.00;10397470;28;20087;-21
2022/01/15 22:31:29;;;;;;;9.43;6.53;;;;;;;18.58;48.68;97316.47;10409615;28;20033;-21
2022/01/15 22:36:31;;;;;;;9.85;5.93;;;;;;;18.58;48.50;97320.69;10427639;28;20029;-21
2022/01/15 22:41:32;;;;;;;8.75;6.80;;;;;;;18.64;48.56;97320.72;10432860;28;20030;-21
2022/01/15 22:46:33;;;;;;;9.38;5.40;;;;;;;18.56;48.83;97291.91;10414537;28;20045;-21
2022/01/15 22:51:35;;;;;;;5.65;5.15;;;;;;;18.63;48.72;97296.22;10414823;28;20048;-22
2022/01/15 22:56:35;;;;;;;7.50;6.45;;;;;;;18.64;48.89;97297.91;10435813;28;20040;-21
2022/01/15 23:01:36;;;;;;;6.93;5.35;;;;;;;18.64;48.79;97303.84;10456209;28;20467;-22
2022/01/15 23:06:37;;;;;;;6.78;5.15;;;;;;;18.61;48.80;97290.28;10454081;28;20033;-22
2022/01/15 23:11:40;;;;;;;6.20;5.60;;;;;;;18.64;49.00;97288.63;10431677;28;20291;-21
2022/01/15 23:21:51;;;;;;;7.50;5.53;;;;;;;18.61;49.26;97286.06;10453469;28;20044;-22
2022/01/15 23:26:53;;;;;;;5.38;4.88;;;;;;;18.61;49.29;97281.00;10452868;28;20415;-21
2022/01/15 23:31:55;;;;;;;8.30;5.60;;;;;;;18.62;49.39;97289.44;10426742;28;20033;-21
2022/01/15 23:36:56;;;;;;;5.32;4.82;;;;;;;18.63;49.36;97291.13;10413237;28;20038;-22
2022/01/15 23:41:56;;;;;;;6.70;5.23;;;;;;;18.61;49.35;97292.81;10434505;28;20040;-21
2022/01/15 23:46:56;;;;;;;5.87;5.27;;;;;;;18.63;49.09;97311.44;10453794;28;20061;-21